Latest Coastal Weather Observations for Whyalla

IDS60701

Issued at 8:01 am CST Monday 1 May 2017 (issued every 10 minutes, with the page automatically refreshed every 10 minutes)

About coastal observations | Map of coastal stations | Coastal observations for SA | Marine services | Other Formats
Station Details ID: 018120 Name: WHYALLA AERO Lat: -33.05 Lon: 137.52 Height: 9.3 m
Data from the previous 72 hours. | See also: Recent months at Whyalla
Date/Time
CST
Temp
°C
Wind Pressure Rain since
9am
mm
Weather Cloud Vis
km
Sea
Height
m
Swell
Dir  Spd
kts
Gust
kts
hPa Trend Height
m
Period
s
Dir
01/08:00am 13.0 NW 7 9 1018.7 - 0.0 - Partly cloudy - - - - -
01/07:30am 11.3 NNW 8 9 1018.3 - 0.0 - Partly cloudy - - - - -
01/07:00am 10.6 NNW 8 9 1018.0 - 0.0 - - - - - - -
01/06:30am 11.1 NNW 9 10 1017.7 - 0.0 - Partly cloudy - - - - -
01/06:00am 11.9 NNW 8 9 1017.6 - 0.0 - Mostly cloudy - - - - -
01/05:30am 11.5 NNW 6 7 1017.7 - 0.0 - Cloudy - - - - -
01/05:00am 11.0 NNW 5 7 1017.6 - 0.0 - Partly cloudy - - - - -
01/04:30am 10.3 NNW 5 7 1017.6 - 0.0 - - - - - - -
01/04:00am 11.7 NW 5 6 1017.5 - 0.0 - Cloudy - - - - -
01/03:30am 11.6 NW 6 8 1017.6 - 0.0 - Cloudy - - - - -
01/03:00am 10.8 NW 5 6 1017.7 - 0.0 - Mostly cloudy - - - - -
01/02:30am 10.7 NNW 6 6 1017.7 - 0.0 - Cloudy - - - - -
01/02:00am 9.5 NNW 6 7 1017.8 - 0.0 - Partly cloudy - - - - -
01/01:30am 9.6 NW 5 5 1017.8 - 0.0 - Partly cloudy - - - - -
01/01:00am 10.1 NNW 6 7 1018.0 - 0.0 - - - - - - -
01/12:30am 10.8 NNW 7 7 1018.0 - 0.0 - - - - - - -
01/12:00am 10.8 NNW 6 7 1017.9 - 0.0 - - - - - - -
 
Date/Time
CST
Temp
°C
Wind Pressure Rain since
9am
mm
Weather Cloud Vis
km
Sea
Height
m
Swell
Dir  Spd
kts
Gust
kts
hPa Trend Height
m
Period
s
Dir
30/11:30pm 10.6 NNW 6 7 1018.3 - 0.0 - - - - - - -
30/11:00pm 11.0 NW 6 7 1018.5 - 0.0 - - - - - - -
30/10:30pm 11.4 NNW 7 8 1018.6 - 0.0 - - - - - - -
30/10:00pm 11.3 NNW 7 8 1018.6 - 0.0 - - 10 - - - -
30/09:30pm 12.0 NW 5 7 1018.7 - 0.0 - - 10 - - - -
30/09:00pm 12.8 NNW 5 6 1018.6 - 0.0 - Partly cloudy 10 - - - -
30/08:30pm 13.6 NW 3 4 1018.5 - 0.0 - - 10 - - - -
30/08:00pm 13.7 NW 5 6 1018.8 - 0.0 - - 10 - - - -
30/07:30pm 14.5 N 3 4 1018.7 - 0.0 - - 10 - - - -
30/07:00pm 15.7 N 3 4 1018.7 - 0.0 - Partly cloudy 10 - - - -
30/06:30pm 16.1 N 5 6 1018.7 - 0.0 - Partly cloudy 10 - - - -
30/06:00pm 17.5 CALM 0 0 1018.5 - 0.0 - Cloudy 10 - - - -
30/05:30pm 18.0 WNW 3 4 1018.5 - 0.0 - Partly cloudy 10 - - - -
30/05:00pm 18.9 NW 6 9 1018.5 - 0.0 - Partly cloudy 10 - - - -
30/04:30pm 19.7 NNW 5 7 1018.6 - 0.0 - Partly cloudy 10 - - - -
30/04:00pm 19.8 NNW 5 10 1018.7 - 0.0 - Cloudy 10 - - - -
30/03:30pm 19.6 NNW 6 8 1018.7 - 0.0 - Partly cloudy 10 - - - -
30/03:00pm 20.3 NW 6 9 1018.7 - 0.0 - Cloudy 10 - - - -
30/02:30pm 19.3 NNW 8 11 1019.0 - 0.0 - Partly cloudy 10 - - - -
30/02:00pm 19.1 NNW 9 11 1019.1 - 0.0 - Partly cloudy 10 - - - -
30/01:30pm 19.3 NNW 10 13 1019.6 - 0.0 - Partly cloudy 10 - - - -
30/01:00pm 18.9 NNW 10 17 1020.0 - 0.0 - Cloudy 10 - - - -
30/12:30pm 19.3 NNW 8 12 1020.5 - 0.0 - Cloudy 10 - - - -
30/12:00pm 19.0 NNW 7 12 1021.1 - 0.0 - Cloudy 10 - - - -
30/11:30am 18.9 NNW 6 11 1021.5 - 0.0 - - 10 - - - -
30/11:00am 18.4 NNE 5 9 1021.8 - 0.0 - Partly cloudy 10 - - - -
30/10:30am 17.1 NNE 5 7 1022.3 - 0.0 - Partly cloudy 10 - - - -
30/10:00am 16.3 NNW 6 8 1022.6 - 0.0 - - 10 - - - -
30/09:30am 15.1 NNW 3 5 1022.9 - 0.0 - - - - - - -
30/09:00am 13.6 NW 3 4 1023.1 - 0.0 - Partly cloudy - - - - -
30/08:30am 11.9 NW 4 4 1023.0 - 0.0 - - - - - - -
30/08:00am 9.8 NW 4 5 1022.9 - 0.0 - - - - - - -
30/07:30am 9.0 NW 3 4 1022.7 - 0.0 - - - - - - -
30/07:00am 8.3 NW 4 5 1022.6 - 0.0 - - - - - - -
30/06:30am 8.5 NW 4 5 1022.6 - 0.0 - - - - - - -
30/06:00am 8.7 NW 4 5 1022.8 - 0.0 - Mostly clear - - - - -
30/05:30am 9.0 NW 4 5 1022.6 - 0.0 - - - - - - -
30/05:00am 9.2 NW 5 6 1022.6 - 0.0 - - - - - - -
30/04:30am 9.1 NNW 6 7 1022.5 - 0.0 - - - - - - -
30/04:00am 8.8 WNW 3 4 1022.5 - 0.0 - - - - - - -
30/03:30am 9.0 WNW 4 4 1022.7 - 0.0 - - - - - - -
30/03:00am 9.4 WNW 5 6 1022.9 - 0.0 - Partly cloudy - - - - -
30/02:30am 10.0 WNW 4 5 1023.0 - 0.0 - - - - - - -
30/02:00am 10.1 NW 4 5 1023.4 - 0.0 - - - - - - -
30/01:30am 10.5 NNW 4 5 1023.6 - 0.0 - - - - - - -
30/01:00am 10.6 NW 4 5 1023.5 - 0.0 - - - - - - -
30/12:30am 11.3 W 4 5 1023.6 - 0.0 - - - - - - -
30/12:00am 12.1 SW 4 5 1023.7 - 0.0 - Partly cloudy - - - - -
 
Date/Time
CST
Temp
°C
Wind Pressure Rain since
9am
mm
Weather Cloud Vis
km
Sea
Height
m
Swell
Dir  Spd
kts
Gust
kts
hPa Trend Height
m
Period
s
Dir
29/11:30pm 12.8 W 3 7 1023.7 - 0.0 - - - - - - -
29/11:00pm 13.8 N 4 5 1023.8 - 0.0 - - - - - - -
29/10:30pm 14.3 N 6 7 1024.2 - 0.0 - Partly cloudy - - - - -
29/10:00pm 14.5 NNW 4 4 1024.5 - 0.0 - Cloudy - - - - -
29/09:30pm 14.5 W 3 4 1024.8 - 0.0 - Cloudy - - - - -
29/09:00pm 14.4 WNW 1 4 1024.8 - 0.0 - Cloudy - - - - -
29/08:30pm 14.2 W 4 5 1025.1 - 0.0 - Cloudy - - - - -
29/08:00pm 14.2 CALM 0 0 1025.2 - 0.0 - Cloudy - - - - -
29/07:30pm 14.9 E 4 4 1025.0 - 0.0 - - - - - - -
29/07:00pm 15.4 E 5 6 1024.8 - 0.0 - Partly cloudy - - - - -
29/06:30pm 16.2 E 4 5 1024.7 - 0.0 - Cloudy - - - - -
29/06:00pm 16.5 E 4 5 1024.7 - 0.0 - Mostly cloudy - - - - -
29/05:30pm 16.6 ESE 4 5 1024.7 - 0.0 - Cloudy - - - - -
29/05:00pm 16.6 SE 5 7 1024.5 - 0.0 - Cloudy - - - - -
29/04:30pm 16.5 SE 5 8 1024.7 - 0.0 - Cloudy - - - - -
29/04:00pm 16.9 SE 5 7 1024.6 - 0.0 - Cloudy - - - - -
29/03:30pm 16.9 SSE 5 8 1024.8 - 0.0 - Cloudy - - - - -
29/03:00pm 17.0 S 6 8 1024.8 - 0.0 - Cloudy - - - - -
29/02:30pm 16.8 S 6 10 1024.9 - 0.0 - Cloudy - - - - -
29/02:00pm 16.8 SSE 8 11 1025.0 - 0.0 - Cloudy - - - - -
29/01:30pm 16.7 S 9 11 1025.2 - 0.0 - Cloudy - - - - -
29/01:00pm 16.5 SSW 9 11 1025.7 - 0.0 - Cloudy - - - - -
29/12:30pm 16.2 S 7 10 1026.2 - 0.0 - Partly cloudy - - - - -
29/12:00pm 16.0 SSE 5 6 1026.8 - 0.0 - Mostly cloudy - - - - -
29/11:30am 15.8 SE 6 8 1027.3 - 0.0 - Partly cloudy - - - - -
29/11:00am 15.7 SE 6 8 1027.6 - 0.0 - Partly cloudy - - - - -
29/10:45am 15.1 SSE 7 11 1027.6 - 0.0 - Partly cloudy - - - - -
29/10:30am 15.5 S 6 8 1027.7 - 0.0 - Partly cloudy - - - - -
29/10:12am 15.8 S 7 10 1027.7 - 0.0 - Partly cloudy - - - - -
29/10:00am 16.2 SE 5 7 1027.8 - 0.0 - Partly cloudy - - - - -
29/09:30am 16.2 SSE 2 4 1027.7 - 0.0 - Cloudy - - - - -
29/09:00am 15.5 SW 4 5 1027.7 - 0.0 - Mostly cloudy - - - - -
29/08:30am 14.8 SSW 5 7 1027.4 - 0.0 - Cloudy - - - - -
29/08:00am 14.6 SSW 5 7 1027.1 - 0.0 - Partly cloudy - - - - -
29/07:30am 14.3 SW 6 8 1026.8 - 0.0 - Partly cloudy - - - - -
29/07:00am 14.1 SW 7 9 1026.7 - 0.0 - Partly cloudy - - - - -
29/06:30am 14.1 SW 7 10 1026.2 - 0.0 - Cloudy - - - - -
29/06:00am 14.5 SSW 7 9 1026.1 - 0.0 - Cloudy - - - - -
29/05:30am 14.6 SW 6 9 1026.0 - 0.0 - Cloudy - - - - -
29/05:00am 14.5 SSW 7 9 1025.8 - 0.0 - Cloudy - - - - -
29/04:30am 14.7 SSW 6 8 1025.8 - 0.0 - Cloudy - - - - -
29/04:00am 14.5 W 4 7 1025.6 - 0.0 - Cloudy 10 - - - -
29/03:30am 14.6 NNW 5 6 1025.5 - 0.0 - Cloudy 10 - - - -
29/03:00am 14.6 WNW 5 6 1025.7 - 0.0 - Mostly cloudy 10 - - - -
29/02:30am 14.7 NW 5 6 1026.0 - 0.0 - Cloudy 10 - - - -
29/02:00am 14.8 NW 5 6 1026.0 - 0.0 - Cloudy 10 - - - -
29/01:30am 14.9 NW 4 5 1026.2 - 0.0 - Cloudy 10 - - - -
29/01:00am 15.0 NW 4 5 1026.3 - 0.0 - Cloudy 10 - - - -
29/12:30am 15.1 WNW 4 5 1026.6 - 0.0 - Partly cloudy 10 - - - -
29/12:00am 15.2 NNW 3 4 1026.8 - 0.0 - Cloudy 10 - - - -
 
Date/Time
CST
Temp
°C
Wind Pressure Rain since
9am
mm
Weather Cloud Vis
km
Sea
Height
m
Swell
Dir  Spd
kts
Gust
kts
hPa Trend Height
m
Period
s
Dir
28/11:30pm 15.3 NNW 5 5 1026.7 - 0.0 - Cloudy 10 - - - -
28/11:00pm 15.3 N 4 4 1027.2 - 0.0 - Partly cloudy 10 - - - -
28/10:30pm 15.4 NNE 4 5 1027.4 - 0.0 - Partly cloudy 10 - - - -
28/10:00pm 15.3 NW 5 5 1027.5 - 0.0 - Cloudy 10 - - - -
28/09:30pm 15.4 WNW 5 5 1027.5 - 0.0 - Cloudy 10 - - - -
28/09:00pm 15.5 NNW 3 4 1027.3 - 0.0 - Mostly cloudy 10 - - - -
28/08:30pm 15.6 CALM 0 0 1027.4 - 0.0 - Cloudy 10 - - - -
28/08:00pm 15.6 E 1 4 1027.4 - 0.0 - Partly cloudy 10 - - - -
28/07:30pm 15.8 CALM 0 0 1027.3 - 0.0 - Cloudy 10 - - - -
28/07:00pm 15.9 CALM 0 0 1027.1 - 0.0 - Cloudy 10 - - - -
28/06:30pm 15.8 CALM 0 0 1027.1 - 0.0 - Cloudy 10 - - - -
28/06:00pm 16.2 E 2 3 1027.0 - 0.0 - Cloudy 10 - - - -
28/05:30pm 16.4 E 3 3 1027.0 - 0.0 - Cloudy 10 - - - -
28/05:00pm 16.8 E 4 6 1026.9 - 0.0 - Cloudy 10 - - - -
28/04:30pm 17.0 SE 5 7 1027.0 - 0.0 - Cloudy 10 - - - -
28/04:00pm 17.2 SE 5 8 1027.1 - 0.0 - Cloudy 10 - - - -
28/03:30pm 17.3 SE 6 9 1027.1 - 0.0 - Cloudy 10 - - - -
28/03:00pm 17.4 SSE 6 9 1027.3 - 0.0 - Mostly cloudy 10 - - - -
28/02:30pm 17.1 ESE 8 11 1027.3 - 0.0 - Cloudy 10 - - - -
28/02:00pm 17.3 ESE 6 9 1027.5 - 0.0 - Cloudy 10 - - - -
28/01:30pm 17.4 SE 8 10 1027.8 - 0.0 - Partly cloudy 10 - - - -
28/01:00pm 17.1 SE 7 9 1028.1 - 0.0 - Partly cloudy 10 - - - -
28/12:30pm 17.7 SSE 3 5 1028.4 - 0.0 - Partly cloudy 10 - - - -
28/12:00pm 17.2 WNW 3 6 1028.8 - 0.0 - Cloudy 10 - - - -
28/11:30am 16.7 W 4 8 1029.3 - 0.0 - Partly cloudy 10 - - - -
28/11:00am 16.3 S 5 7 1029.7 - 0.0 - Cloudy 10 - - - -
28/10:30am 16.4 SW 4 7 1029.8 - 0.0 - Partly cloudy 10 - - - -
28/10:00am 16.2 SW 6 9 1029.6 - 0.0 - Partly cloudy 10 - - - -
28/09:30am 15.7 W 1 4 1029.7 - 0.0 - Cloudy - - - - -
28/09:00am 14.4 WNW 4 5 1029.7 - 0.0 - Cloudy - - - - -
28/08:30am 13.2 WNW 5 6 1029.5 - 0.0 - Partly cloudy - - - - -

Other Formats:

Comma delimited format used in spreadsheet applications
http://www.bom.gov.au/fwo/IDS60701/IDS60701.95664.axf

JavaScript Object Notation format (JSON) in row-major order
http://www.bom.gov.au/fwo/IDS60701/IDS60701.95664.json